Aviation Digital Data Service (ADDS)

Output produced by METARs form (0436 UTC 03 September 2014)
found at http://aviationweather.gov/adds/metars/
 
METAR text: KBFM 030353Z AUTO 00000KT 10SM CLR 26/24 A3005 RMK AO2 SLP175 T02560244
Conditions at: KBFM (MOBILE/BROOKLEY , AL, US) observed 0353 UTC 03 September 2014
Temperature: 25.6°C (78°F)
Dewpoint: 24.4°C (76°F) [RH = 93%]
Pressure (altimeter): 30.05 inches Hg (1017.7 mb)
[Sea-level pressure: 1017.5 mb]
Winds: calm
Visibility: 10 or more miles (16+ km)
Ceiling: at least 12,000 feet AGL
Clouds: sky clear below 12,000 feet AGL
Weather: automated observation with no human augmentation;
there may or may not be significant weather present at this time